Time;durP1;ratioP1;P1;durP2;ratioP2;P2;SDS_P1;SDS_P2;PMS_P1;PMS_P2;Temp;Humidity;BMP_temperature;BMP_pressure;BME280_temperature;BME280_humidity;BME280_pressure;Samples;Min_cycle;Max_cycle;Signal;HPM_P1;HPM_P2
2022/07/25 00:00:29;;;;;;;7.20;4.07;;;;;;;19.31;100.00;100670.06;5028326;28;20435;-91
2022/07/25 00:03:03;;;;;;;6.70;4.10;;;;;;;19.26;100.00;100675.78;5030367;28;20410;-89
2022/07/25 00:05:36;;;;;;;9.27;4.20;;;;;;;19.27;100.00;100675.44;5030565;28;20418;-90
2022/07/25 00:08:11;;;;;;;6.18;3.92;;;;;;;19.17;100.00;100659.31;5028435;28;20449;-90
2022/07/25 00:10:44;;;;;;;7.93;4.00;;;;;;;19.30;100.00;100671.19;5024255;28;20425;-90
2022/07/25 00:13:17;;;;;;;7.20;4.00;;;;;;;19.22;100.00;100663.81;5028888;28;20437;-92
2022/07/25 00:15:50;;;;;;;6.85;4.10;;;;;;;19.26;100.00;100662.00;5026345;28;20434;-90
2022/07/25 00:18:23;;;;;;;6.20;4.10;;;;;;;19.26;100.00;100662.78;5029974;28;20946;-92
2022/07/25 00:20:57;;;;;;;7.15;4.07;;;;;;;19.26;100.00;100662.78;5027444;28;20438;-89
2022/07/25 00:23:27;;;;;;;7.28;4.00;;;;;;;19.22;100.00;100656.34;5028931;28;20875;-90
2022/07/25 00:25:55;;;;;;;6.90;4.07;;;;;;;19.14;100.00;100652.53;5028215;28;20431;-91
2022/07/25 00:28:23;;;;;;;7.30;3.75;;;;;;;19.12;100.00;100648.50;5026563;28;20434;-91
2022/07/25 00:30:56;;;;;;;6.38;3.92;;;;;;;19.04;100.00;100652.94;5020443;28;20879;-89
2022/07/25 00:33:30;;;;;;;6.15;3.83;;;;;;;19.05;100.00;100645.47;5024662;28;20407;-91
2022/07/25 00:36:03;;;;;;;10.40;4.05;;;;;;;19.14;100.00;100648.94;5031686;28;20421;-89
2022/07/25 00:38:37;;;;;;;6.50;4.03;;;;;;;19.01;100.00;100632.34;5027720;28;20788;-91
2022/07/25 00:41:06;;;;;;;7.00;3.63;;;;;;;18.86;100.00;100619.16;5027941;28;20775;-92
2022/07/25 00:43:42;;;;;;;9.30;4.27;;;;;;;18.92;100.00;100645.44;5024448;28;20439;-91
2022/07/25 00:46:17;;;;;;;6.30;3.90;;;;;;;18.93;100.00;100652.53;5027848;28;20423;-90
2022/07/25 00:48:50;;;;;;;7.32;3.90;;;;;;;18.91;100.00;100651.28;5024327;28;20433;-91
2022/07/25 00:51:18;;;;;;;7.35;3.85;;;;;;;18.85;100.00;100647.88;5025313;28;20418;-91
2022/07/25 00:53:48;;;;;;;6.10;3.83;;;;;;;18.89;100.00;100650.78;5034104;28;20427;-91
2022/07/25 00:56:21;;;;;;;6.22;3.67;;;;;;;18.87;100.00;100653.88;5027449;28;20431;-92
2022/07/25 00:58:55;;;;;;;5.50;3.63;;;;;;;18.79;100.00;100643.72;5025032;28;20769;-92
2022/07/25 01:01:23;;;;;;;6.65;3.67;;;;;;;18.84;100.00;100654.53;5028052;28;20434;-91
2022/07/25 01:03:52;;;;;;;6.30;3.90;;;;;;;18.75;100.00;100642.78;5029775;28;20403;-92
2022/07/25 01:06:26;;;;;;;5.55;3.70;;;;;;;18.81;100.00;100653.25;5025945;28;20430;-89
2022/07/25 01:09:01;;;;;;;6.38;3.70;;;;;;;18.78;100.00;100651.19;5025557;28;20425;-90
2022/07/25 01:11:29;;;;;;;6.13;3.50;;;;;;;18.70;100.00;100644.59;5027481;28;20930;-91
2022/07/25 01:14:02;;;;;;;5.72;3.70;;;;;;;18.67;100.00;100644.44;5029282;28;20426;-91
2022/07/25 01:16:36;;;;;;;8.17;3.60;;;;;;;18.54;100.00;100640.81;5028934;28;20419;-91
2022/07/25 01:19:04;;;;;;;7.13;3.45;;;;;;;18.67;100.00;100645.25;5028006;28;20426;-91
2022/07/25 01:21:40;;;;;;;6.37;3.60;;;;;;;18.66;100.00;100631.81;5027952;28;20923;-91
2022/07/25 01:24:13;;;;;;;5.57;3.50;;;;;;;18.56;100.00;100633.03;5029131;28;20446;-93
2022/07/25 01:26:41;;;;;;;5.40;3.47;;;;;;;18.55;100.00;100631.41;5029488;28;20775;-92
2022/07/25 01:29:14;;;;;;;6.93;3.50;;;;;;;18.54;100.00;100627.03;5029814;28;20787;-91
2022/07/25 01:31:47;;;;;;;5.72;3.55;;;;;;;18.51;100.00;100625.75;5028237;28;20423;-92
2022/07/25 01:34:20;;;;;;;7.20;3.42;;;;;;;18.52;100.00;100624.63;5027567;28;20431;-92
2022/07/25 01:36:50;;;;;;;5.85;3.30;;;;;;;18.35;100.00;100602.69;5028059;28;20435;-90
2022/07/25 01:39:23;;;;;;;5.33;3.23;;;;;;;18.45;100.00;100610.56;5028959;28;20415;-92
2022/07/25 01:41:56;;;;;;;5.70;3.50;;;;;;;18.43;100.00;100601.03;5029645;28;20446;-91
2022/07/25 01:44:29;;;;;;;5.47;3.25;;;;;;;18.47;100.00;100611.03;5028702;28;20418;-90
2022/07/25 01:47:03;;;;;;;6.13;3.35;;;;;;;18.43;100.00;100593.56;5025643;28;20419;-92
2022/07/25 01:49:31;;;;;;;5.38;3.10;;;;;;;18.48;100.00;100601.63;5043605;28;20411;-89
2022/07/25 01:52:01;;;;;;;5.47;3.20;;;;;;;18.44;100.00;100603.44;5026496;28;20430;-91
2022/07/25 01:54:34;;;;;;;5.05;3.00;;;;;;;18.37;100.00;100603.16;5027128;28;20430;-90
2022/07/25 01:57:02;;;;;;;5.28;3.22;;;;;;;18.35;100.00;100602.69;5024810;28;20590;-91
2022/07/25 01:59:37;;;;;;;5.18;3.00;;;;;;;18.32;100.00;100595.88;5022176;28;20419;-91
2022/07/25 02:02:06;;;;;;;6.63;3.08;;;;;;;18.31;100.00;100593.47;5042621;28;20422;-91
2022/07/25 02:04:39;;;;;;;5.22;3.10;;;;;;;18.25;100.00;100595.63;5031389;28;20419;-89
2022/07/25 02:07:08;;;;;;;5.30;2.97;;;;;;;18.11;100.00;100584.84;5031271;28;20434;-91
2022/07/25 02:09:38;;;;;;;6.03;3.10;;;;;;;18.15;100.00;100594.06;5026077;28;20732;-90
2022/07/25 02:12:11;;;;;;;5.25;2.90;;;;;;;18.13;100.00;100587.28;5030818;28;20776;-90
2022/07/25 02:14:45;;;;;;;5.05;2.90;;;;;;;18.14;100.00;100581.44;5031876;28;20466;-91
2022/07/25 02:17:18;;;;;;;8.80;2.90;;;;;;;18.20;100.00;100584.78;5032905;28;20415;-91
2022/07/25 02:19:46;;;;;;;5.70;2.90;;;;;;;18.26;100.00;100580.72;5033501;28;20772;-91
2022/07/25 02:22:20;;;;;;;5.32;3.00;;;;;;;18.23;100.00;100583.31;5026304;28;20442;-89
2022/07/25 02:24:53;;;;;;;4.80;2.80;;;;;;;18.23;100.00;100573.13;5029246;28;20427;-90
2022/07/25 02:27:27;;;;;;;5.20;2.80;;;;;;;18.26;100.00;100568.91;5033061;28;20465;-92
2022/07/25 02:30:00;;;;;;;4.85;2.80;;;;;;;18.19;100.00;100567.47;5033013;28;20434;-92
2022/07/25 02:32:33;;;;;;;4.97;2.60;;;;;;;18.22;100.00;100563.25;5032186;28;20491;-92
2022/07/25 02:35:07;;;;;;;4.53;2.67;;;;;;;18.09;100.00;100561.53;5031354;28;20922;-92
2022/07/25 02:37:42;;;;;;;4.82;2.63;;;;;;;18.09;100.00;100551.34;5032780;28;20430;-92
2022/07/25 02:40:15;;;;;;;5.30;2.60;;;;;;;18.04;100.00;100548.00;5031393;28;20434;-92
2022/07/25 02:42:48;;;;;;;5.10;2.78;;;;;;;18.02;100.00;100540.03;5032182;28;20431;-89
2022/07/25 02:45:21;;;;;;;4.10;2.53;;;;;;;17.92;100.00;100519.19;5029509;28;20434;-91
2022/07/25 02:47:55;;;;;;;4.82;2.50;;;;;;;18.14;100.00;100553.88;5031104;28;20430;-90
2022/07/25 02:50:23;;;;;;;5.05;2.60;;;;;;;18.05;100.00;100546.81;5031246;28;20434;-90
2022/07/25 02:52:52;;;;;;;4.97;2.60;;;;;;;18.02;100.00;100551.03;5025033;28;20423;-91
2022/07/25 02:55:20;;;;;;;5.18;2.72;;;;;;;17.72;100.00;100504.25;5034085;28;20404;-89
2022/07/25 02:57:49;;;;;;;4.95;2.63;;;;;;;17.86;100.00;100523.28;5032976;28;20450;-91
2022/07/25 03:00:23;;;;;;;6.25;2.58;;;;;;;17.92;100.00;100535.72;5045818;28;20421;-88
2022/07/25 03:02:51;;;;;;;4.37;2.60;;;;;;;17.66;100.00;100502.81;5030680;28;20423;-92
2022/07/25 03:05:24;;;;;;;5.25;2.55;;;;;;;17.88;100.00;100536.69;5046023;28;20427;-91
2022/07/25 03:07:59;;;;;;;5.05;2.60;;;;;;;17.89;100.00;100533.59;5028973;28;20860;-89
2022/07/25 03:10:27;;;;;;;4.50;2.60;;;;;;;17.97;100.00;100540.25;5032269;28;20463;-91
2022/07/25 03:13:00;;;;;;;6.18;2.63;;;;;;;17.96;100.00;100533.91;5030908;28;20430;-91
2022/07/25 03:15:34;;;;;;;4.25;2.50;;;;;;;17.91;100.00;100536.88;5027167;28;20778;-90
2022/07/25 03:18:02;;;;;;;4.22;2.50;;;;;;;17.88;100.00;100534.75;5032104;28;20438;-89
2022/07/25 03:20:35;;;;;;;4.47;2.50;;;;;;;17.90;100.00;100531.66;5027948;28;20417;-90
2022/07/25 03:23:09;;;;;;;4.40;2.38;;;;;;;17.76;100.00;100507.13;5030879;28;20431;-87
2022/07/25 03:25:43;;;;;;;4.53;2.42;;;;;;;17.79;100.00;100498.22;5029631;28;20856;-89
2022/07/25 03:28:16;;;;;;;4.40;2.33;;;;;;;17.94;100.00;100524.38;5031090;28;20426;-91
2022/07/25 03:30:44;;;;;;;4.72;2.35;;;;;;;17.89;100.00;100519.06;5033853;28;20415;-91
2022/07/25 03:33:12;;;;;;;3.70;2.28;;;;;;;17.63;100.00;100479.50;5032900;28;20419;-91
2022/07/25 03:35:40;;;;;;;4.15;2.25;;;;;;;17.66;100.00;100478.03;5031367;28;20434;-89
2022/07/25 03:38:15;;;;;;;4.28;2.30;;;;;;;17.76;100.00;100487.84;5033001;28;20419;-91
2022/07/25 03:40:43;;;;;;;5.73;2.40;;;;;;;17.48;100.00;100452.56;5033128;28;20422;-88
2022/07/25 03:43:11;;;;;;;4.03;2.40;;;;;;;17.81;100.00;100502.22;5027299;28;20434;-90
2022/07/25 03:45:45;;;;;;;3.70;2.28;;;;;;;17.84;100.00;100498.84;5032810;28;20427;-88
2022/07/25 03:48:18;;;;;;;4.10;2.30;;;;;;;17.89;100.00;100492.31;5030715;28;20435;-87
2022/07/25 03:50:46;;;;;;;4.47;2.40;;;;;;;17.83;100.00;100461.44;5031653;28;20895;-91
2022/07/25 03:53:21;;;;;;;4.32;2.13;;;;;;;17.90;100.00;100466.41;5029873;28;20430;-89
2022/07/25 03:55:49;;;;;;;3.70;2.20;;;;;;;17.90;100.00;100474.66;5026494;28;20418;-90
2022/07/25 03:58:22;;;;;;;4.07;2.20;;;;;;;17.76;100.00;100430.88;5029851;28;20743;-94
2022/07/25 04:00:55;;;;;;;3.78;2.45;;;;;;;17.60;100.00;100399.59;5030001;28;20435;-91
2022/07/25 04:03:24;;;;;;;6.18;2.28;;;;;;;17.75;100.00;100420.22;5028852;28;20435;-90
2022/07/25 04:05:57;;;;;;;4.43;2.37;;;;;;;17.85;100.00;100445.38;5029608;28;20438;-89
2022/07/25 04:08:32;;;;;;;4.53;2.22;;;;;;;17.72;100.00;100424.44;5030692;28;20423;-90
2022/07/25 04:11:00;;;;;;;3.75;2.30;;;;;;;17.55;100.00;100386.81;5031216;28;20418;-90
2022/07/25 04:13:33;;;;;;;3.65;2.20;;;;;;;17.93;100.00;100446.50;5032603;28;20415;-90
2022/07/25 04:16:01;;;;;;;5.50;2.45;;;;;;;17.97;100.00;100436.41;5027703;28;20442;-90
2022/07/25 04:18:30;;;;;;;5.37;2.43;;;;;;;17.90;100.00;100421.53;5030182;28;20423;-90
2022/07/25 04:21:03;;;;;;;4.78;2.50;;;;;;;18.00;100.00;100427.47;5043980;28;20426;-90
2022/07/25 04:23:38;;;;;;;3.90;2.30;;;;;;;17.97;100.00;100428.16;5025279;28;20428;-89
2022/07/25 04:26:06;;;;;;;4.45;2.40;;;;;;;17.84;100.00;100416.25;5027770;28;20428;-89
2022/07/25 04:28:35;;;;;;;4.00;2.40;;;;;;;17.84;100.00;100405.25;5040051;28;20414;-90
2022/07/25 04:31:08;;;;;;;3.60;2.30;;;;;;;18.04;100.00;100424.06;5030389;28;20407;-91
2022/07/25 04:33:36;;;;;;;4.35;2.30;;;;;;;18.12;100.00;100429.50;5025741;28;20481;-92
2022/07/25 04:36:10;;;;;;;4.60;2.30;;;;;;;18.14;100.00;100421.69;5027529;28;20427;-89
2022/07/25 04:38:45;;;;;;;4.78;2.13;;;;;;;18.20;100.00;100419.53;5024286;28;20423;-92
2022/07/25 04:41:13;;;;;;;3.63;2.22;;;;;;;18.18;100.00;100416.31;5027428;28;20416;-88
2022/07/25 04:43:46;;;;;;;3.60;2.15;;;;;;;18.22;100.00;100410.97;5024383;28;20925;-90
2022/07/25 04:46:18;;;;;;;3.10;2.00;;;;;;;18.25;100.00;100415.78;5023603;28;20552;-89
2022/07/25 04:48:46;;;;;;;4.03;2.30;;;;;;;18.22;100.00;100411.75;5031287;28;20436;-89
2022/07/25 04:51:20;;;;;;;3.95;2.22;;;;;;;18.21;100.00;100412.09;5027147;28;20423;-89
2022/07/25 04:53:54;;;;;;;3.90;2.20;;;;;;;18.36;100.00;100404.00;5023371;28;20423;-89
2022/07/25 04:56:27;;;;;;;3.77;2.20;;;;;;;18.46;100.00;100397.28;5026896;28;20421;-90
2022/07/25 04:59:00;;;;;;;3.22;2.22;;;;;;;18.51;100.00;100399.78;5028545;28;20431;-90
2022/07/25 05:01:28;;;;;;;4.68;2.22;;;;;;;18.53;100.00;100388.41;5027745;28;20434;-90
2022/07/25 05:03:57;;;;;;;3.83;2.20;;;;;;;18.65;100.00;100390.41;5025419;28;20440;-90
2022/07/25 05:06:30;;;;;;;5.20;2.33;;;;;;;19.10;100.00;100372.19;5024750;28;20423;-91
2022/07/25 05:09:04;;;;;;;4.50;2.30;;;;;;;19.50;100.00;100382.50;5029407;28;20418;-90
2022/07/25 05:11:37;;;;;;;3.97;2.40;;;;;;;20.09;100.00;100380.28;5029648;28;20419;-89
2022/07/25 05:14:06;;;;;;;3.00;1.92;;;;;;;20.09;100.00;100372.78;5029861;28;20403;-88
2022/07/25 05:16:39;;;;;;;3.97;2.22;;;;;;;21.48;97.92;100360.06;5028337;28;20423;-89
2022/07/25 05:19:08;;;;;;;3.22;2.00;;;;;;;23.10;83.08;100356.75;5029776;28;20764;-92
2022/07/25 05:21:41;;;;;;;3.55;2.10;;;;;;;24.32;78.40;100343.66;5032587;28;20803;-91
2022/07/25 05:24:16;;;;;;;4.07;2.00;;;;;;;24.95;68.29;100344.59;5028407;28;20431;-91
2022/07/25 05:26:49;;;;;;;3.53;2.00;;;;;;;25.50;73.09;100337.38;5028461;28;20821;-90
2022/07/25 05:29:22;;;;;;;3.25;2.10;;;;;;;25.67;62.09;100335.88;5025620;28;20424;-93
2022/07/25 05:31:56;;;;;;;3.73;2.10;;;;;;;26.43;67.49;100334.09;5028060;28;20426;-91
2022/07/25 05:34:29;;;;;;;4.15;2.05;;;;;;;25.99;63.24;100326.84;5027584;28;20460;-91
2022/07/25 05:37:02;;;;;;;3.55;1.95;;;;;;;25.70;67.90;100334.28;5027118;28;20428;-91
2022/07/25 05:39:39;;;;;;;3.50;2.03;;;;;;;25.66;67.77;100330.69;5032166;28;20434;-92
2022/07/25 05:42:12;;;;;;;7.25;2.42;;;;;;;24.91;70.63;100326.25;5032071;28;20425;-88
2022/07/25 05:44:45;;;;;;;4.15;2.00;;;;;;;24.05;75.69;100320.72;5031258;28;20453;-92
2022/07/25 05:47:18;;;;;;;2.72;1.70;;;;;;;23.27;80.42;100324.91;5031900;28;20419;-91
2022/07/25 05:49:46;;;;;;;2.80;1.80;;;;;;;22.71;92.55;100329.19;5029820;28;20471;-91
2022/07/25 05:52:19;;;;;;;4.57;2.00;;;;;;;22.55;94.34;100330.13;5032970;28;20422;-90
2022/07/25 05:54:54;;;;;;;2.77;1.83;;;;;;;22.34;98.42;100329.75;5032761;28;20426;-90
2022/07/25 05:57:27;;;;;;;3.45;2.10;;;;;;;22.17;94.81;100326.25;5033459;28;20419;-88
2022/07/25 06:00:00;;;;;;;3.92;2.17;;;;;;;21.92;97.33;100321.03;5028176;28;20415;-89
2022/07/25 06:02:31;;;;;;;3.27;2.20;;;;;;;21.77;99.45;100318.38;5030193;28;20879;-89
2022/07/25 06:04:59;;;;;;;3.73;2.00;;;;;;;21.85;98.03;100300.72;5031602;28;20445;-88
2022/07/25 06:07:32;;;;;;;3.88;2.20;;;;;;;21.92;98.96;100312.72;5033145;28;20423;-88
2022/07/25 06:10:07;;;;;;;5.22;1.90;;;;;;;21.87;100.00;100304.69;5030933;28;20427;-91
2022/07/25 06:12:35;;;;;;;3.40;2.13;;;;;;;21.91;98.98;100299.25;5039258;28;20464;-91
2022/07/25 06:15:09;;;;;;;3.38;2.03;;;;;;;21.80;100.00;100290.72;5032300;28;20429;-89
2022/07/25 06:17:42;;;;;;;3.28;2.10;;;;;;;21.85;97.70;100292.41;5029121;28;20422;-87
2022/07/25 06:20:15;;;;;;;3.10;2.00;;;;;;;21.66;100.00;100282.16;5031679;28;20426;-89
2022/07/25 06:22:49;;;;;;;3.13;2.10;;;;;;;21.72;100.00;100287.03;5032043;28;20799;-88
2022/07/25 06:25:23;;;;;;;3.65;2.20;;;;;;;21.89;98.26;100284.97;5030599;28;20791;-90
2022/07/25 06:27:52;;;;;;;6.35;2.35;;;;;;;21.86;100.00;100256.03;5029391;28;20418;-91
2022/07/25 06:30:25;;;;;;;4.85;2.38;;;;;;;22.27;100.00;100286.03;5031470;28;20431;-91
2022/07/25 06:32:58;;;;;;;7.20;2.05;;;;;;;22.42;96.61;100278.81;5033175;28;20454;-89
2022/07/25 06:35:31;;;;;;;4.15;2.22;;;;;;;22.59;98.58;100272.75;5047552;28;20426;-88
2022/07/25 06:38:05;;;;;;;4.75;2.20;;;;;;;22.50;93.52;100269.44;5030829;28;20916;-91
2022/07/25 06:40:39;;;;;;;4.30;2.10;;;;;;;22.57;94.83;100272.31;5028512;28;21010;-89
2022/07/25 06:43:12;;;;;;;3.58;2.17;;;;;;;22.69;93.75;100264.94;5029798;28;20429;-86
2022/07/25 06:45:45;;;;;;;3.58;2.10;;;;;;;22.79;93.64;100258.78;5029392;28;20427;-86
2022/07/25 06:48:19;;;;;;;4.60;2.10;;;;;;;22.80;99.39;100259.56;5036149;28;20437;-83
2022/07/25 06:50:52;;;;;;;4.03;2.40;;;;;;;22.70;92.25;100252.69;5031605;28;20436;-91
2022/07/25 06:53:25;;;;;;;3.60;2.20;;;;;;;22.63;100.00;100252.59;5028727;28;20434;-92
2022/07/25 06:56:00;;;;;;;3.80;2.00;;;;;;;22.74;98.52;100256.31;5029459;28;20423;-90
2022/07/25 06:58:33;;;;;;;5.15;2.13;;;;;;;22.89;96.96;100249.81;5036857;28;20426;-91
2022/07/25 07:01:06;;;;;;;4.50;2.10;;;;;;;23.15;96.19;100253.75;5032611;28;20427;-90
2022/07/25 07:03:40;;;;;;;3.85;2.17;;;;;;;23.05;100.00;100251.63;5034628;28;20768;-89
2022/07/25 07:06:13;;;;;;;6.15;2.38;;;;;;;22.91;100.00;100241.91;5026673;28;20434;-93
2022/07/25 07:08:41;;;;;;;3.78;2.30;;;;;;;22.86;98.76;100224.81;5031770;28;20439;-90
2022/07/25 07:11:16;;;;;;;3.30;2.03;;;;;;;23.17;100.00;100229.19;5029954;28;20419;-93
2022/07/25 07:13:44;;;;;;;3.70;2.10;;;;;;;23.31;91.43;100231.38;5018397;28;20432;-87
2022/07/25 07:16:17;;;;;;;4.57;2.30;;;;;;;23.61;97.07;100236.06;5008800;28;20423;-91
2022/07/25 07:18:45;;;;;;;5.47;2.30;;;;;;;23.89;90.43;100223.69;5005221;28;20501;-88
2022/07/25 07:21:19;;;;;;;6.00;2.10;;;;;;;24.06;90.11;100225.84;5004752;28;20426;-89
2022/07/25 07:23:52;;;;;;;4.57;2.30;;;;;;;24.36;90.62;100224.91;5016975;28;20431;-87
2022/07/25 07:26:26;;;;;;;4.40;2.17;;;;;;;24.38;92.18;100224.50;5004383;28;21002;-90
2022/07/25 07:29:01;;;;;;;4.60;2.13;;;;;;;24.36;84.64;100222.13;5018277;28;20423;-89
2022/07/25 07:31:34;;;;;;;7.38;2.50;;;;;;;24.20;86.05;100211.25;5007098;28;20431;-90
2022/07/25 07:34:07;;;;;;;5.03;2.35;;;;;;;23.88;91.68;100200.66;5010494;28;21018;-88
2022/07/25 07:36:41;;;;;;;3.53;2.22;;;;;;;23.97;87.89;100216.22;5015504;28;20809;-89
2022/07/25 07:39:15;;;;;;;3.80;2.17;;;;;;;24.05;88.03;100202.00;5019398;28;20412;-90
2022/07/25 07:41:45;;;;;;;4.10;2.33;;;;;;;24.27;91.94;100199.41;5038136;28;20446;-89
2022/07/25 07:44:18;;;;;;;3.88;2.40;;;;;;;24.40;92.64;100183.19;5018476;28;20423;-85
2022/07/25 07:46:51;;;;;;;4.35;2.35;;;;;;;24.58;88.37;100189.69;5013870;28;20434;-88
2022/07/25 07:49:24;;;;;;;3.78;2.28;;;;;;;24.74;83.10;100192.19;5017452;28;20433;-86
2022/07/25 07:51:57;;;;;;;5.70;2.70;;;;;;;24.76;84.45;100184.25;5017308;28;20422;-86
2022/07/25 07:57:17;;;;;;;4.37;2.33;;;;;;;24.81;85.61;100188.66;5017608;28;20427;-87
2022/07/25 07:59:50;;;;;;;5.45;2.55;;;;;;;24.89;81.34;100192.28;5022104;28;20429;-87
2022/07/25 08:02:23;;;;;;;4.38;2.50;;;;;;;24.99;82.67;100179.59;5036299;28;20431;-86
2022/07/25 08:04:57;;;;;;;4.22;2.50;;;;;;;25.08;85.60;100174.44;5020518;28;20436;-87
2022/07/25 08:07:30;;;;;;;4.25;2.50;;;;;;;25.18;87.29;100168.13;5019467;28;20430;-88
2022/07/25 08:09:58;;;;;;;6.50;2.67;;;;;;;25.30;88.63;100167.00;5017746;28;20430;-85
2022/07/25 08:12:28;;;;;;;5.03;2.83;;;;;;;25.44;89.49;100164.25;5010548;28;20424;-88
2022/07/25 08:14:56;;;;;;;6.03;2.88;;;;;;;25.58;78.21;100148.78;5010792;28;20415;-86
2022/07/25 08:17:24;;;;;;;4.95;2.88;;;;;;;25.74;82.06;100151.97;4999293;28;21229;-86
2022/07/25 08:19:57;;;;;;;4.93;2.63;;;;;;;25.77;74.40;100151.19;5002394;28;20449;-87
2022/07/25 08:22:35;;;;;;;4.60;2.58;;;;;;;25.68;79.22;100152.75;5010893;28;20431;-86
2022/07/25 08:25:04;;;;;;;4.85;2.83;;;;;;;25.61;79.19;100154.34;5015997;28;20438;-88
2022/07/25 08:27:39;;;;;;;5.03;2.90;;;;;;;25.60;85.20;100147.19;5000143;28;20432;-86
2022/07/25 08:30:16;;;;;;;5.63;2.90;;;;;;;25.70;84.41;100147.56;5006615;28;20431;-86
2022/07/25 08:32:51;;;;;;;7.57;2.80;;;;;;;25.79;88.17;100134.06;5020310;28;20677;-86
2022/07/25 08:35:20;;;;;;;5.85;2.58;;;;;;;26.00;88.61;100143.63;5001258;28;20547;-87
2022/07/25 08:37:54;;;;;;;5.75;3.03;;;;;;;26.16;78.05;100137.63;4996582;28;20411;-86
2022/07/25 08:40:29;;;;;;;5.30;2.90;;;;;;;26.26;88.34;100134.84;4998428;28;20419;-85
2022/07/25 08:43:04;;;;;;;5.07;3.10;;;;;;;26.44;85.37;100129.22;5012988;28;20432;-86
2022/07/25 08:45:43;;;;;;;5.50;3.15;;;;;;;26.67;81.58;100124.38;4999241;28;20431;-85
2022/07/25 08:48:18;;;;;;;11.80;5.68;;;;;;;26.85;73.49;100118.75;5000626;28;20431;-88
2022/07/25 08:50:47;;;;;;;7.93;3.65;;;;;;;27.02;77.46;100115.09;5005243;28;20420;-87
2022/07/25 08:53:18;;;;;;;6.10;3.30;;;;;;;27.10;80.93;100107.47;5012597;28;20423;-88
2022/07/25 08:55:51;;;;;;;7.50;4.63;;;;;;;27.20;76.81;100108.63;5021021;28;20769;-87
2022/07/25 08:58:20;;;;;;;6.90;3.80;;;;;;;27.52;71.38;100116.81;5003902;28;21278;-86
2022/07/25 09:00:54;;;;;;;6.10;3.50;;;;;;;27.61;73.46;100111.56;4999557;28;20432;-87
2022/07/25 09:03:27;;;;;;;6.23;3.57;;;;;;;27.71;70.69;100098.69;5003770;28;20430;-87
2022/07/25 09:06:00;;;;;;;5.67;3.40;;;;;;;27.90;75.26;100105.75;4999008;28;20512;-86
2022/07/25 09:08:33;;;;;;;7.70;3.60;;;;;;;27.96;72.37;100094.91;5003756;28;20452;-87
2022/07/25 09:11:06;;;;;;;6.43;3.75;;;;;;;28.11;68.49;100101.97;4992308;28;20425;-86
2022/07/25 09:13:41;;;;;;;6.80;3.80;;;;;;;28.04;70.58;100101.25;4998073;28;20468;-85
2022/07/25 09:16:09;;;;;;;5.93;3.78;;;;;;;27.97;64.11;100091.69;5002531;28;20456;-86
2022/07/25 09:18:40;;;;;;;5.93;3.50;;;;;;;27.92;67.12;100096.94;5004165;28;20814;-87
2022/07/25 09:21:13;;;;;;;6.25;3.83;;;;;;;27.82;70.13;100095.81;4998560;28;20427;-86
2022/07/25 09:23:46;;;;;;;7.03;3.72;;;;;;;27.90;61.60;100088.19;5002536;28;20426;-87
2022/07/25 09:26:20;;;;;;;5.78;3.50;;;;;;;28.20;68.17;100081.09;4997920;28;20433;-86
2022/07/25 09:28:55;;;;;;;5.97;3.80;;;;;;;28.46;66.23;100074.03;5002985;28;21465;-85
2022/07/25 09:31:33;;;;;;;7.77;3.80;;;;;;;28.75;65.85;100068.88;5008522;28;20438;-88
2022/07/25 09:34:08;;;;;;;6.47;3.70;;;;;;;28.87;65.52;100067.53;5003191;28;20433;-87
2022/07/25 09:36:52;;;;;;;7.88;3.75;;;;;;;29.03;62.13;100066.94;4999361;28;20430;-87
2022/07/25 09:39:20;;;;;;;6.78;3.85;;;;;;;29.11;59.37;100053.59;5004729;28;20441;-87
2022/07/25 09:41:53;;;;;;;6.40;3.45;;;;;;;29.23;60.21;100060.63;4998218;28;20433;-86
2022/07/25 09:44:22;;;;;;;6.47;4.00;;;;;;;29.23;57.87;100058.63;4996445;28;20431;-86
2022/07/25 09:46:51;;;;;;;6.00;3.90;;;;;;;29.24;59.31;100053.81;5002484;28;20430;-88
2022/07/25 09:49:25;;;;;;;7.20;3.90;;;;;;;29.30;56.46;100054.94;5006825;28;20426;-87
2022/07/25 09:51:58;;;;;;;6.13;3.80;;;;;;;29.39;58.25;100057.19;5000655;28;20454;-87
2022/07/25 09:54:33;;;;;;;8.07;4.03;;;;;;;29.60;66.05;100051.25;5001026;28;20764;-87
2022/07/25 09:57:06;;;;;;;7.30;3.78;;;;;;;29.76;54.72;100044.97;4999820;28;20430;-88
2022/07/25 09:59:41;;;;;;;6.45;3.92;;;;;;;29.79;62.66;100046.91;4998987;28;20928;-88
2022/07/25 10:02:25;;;;;;;5.30;3.42;;;;;;;29.84;60.50;100043.66;5002990;28;20536;-88
2022/07/25 10:05:09;;;;;;;6.10;3.75;;;;;;;29.76;57.70;100044.97;4998966;28;20831;-88
2022/07/25 10:07:46;;;;;;;12.13;8.32;;;;;;;29.56;56.89;100041.31;5000307;28;20432;-82
2022/07/25 10:10:23;;;;;;;5.60;3.72;;;;;;;29.54;57.02;100038.13;5003429;28;20425;-82
2022/07/25 10:13:05;;;;;;;7.60;3.88;;;;;;;29.48;53.79;100037.84;4980897;28;20430;-83
2022/07/25 10:15:45;;;;;;;8.60;4.00;;;;;;;29.29;53.71;100026.13;5005295;28;20426;-82
2022/07/25 10:18:21;;;;;;;8.20;3.70;;;;;;;29.29;61.92;100028.94;5011775;28;20422;-81
2022/07/25 10:20:56;;;;;;;6.55;3.85;;;;;;;29.26;65.79;100031.78;4999789;28;20433;-83
2022/07/25 10:23:29;;;;;;;7.70;3.60;;;;;;;29.12;59.62;100033.56;5000260;28;20441;-83
2022/07/25 10:26:07;;;;;;;5.50;3.60;;;;;;;29.23;55.24;100032.63;5007728;28;20926;-82
2022/07/25 10:28:44;;;;;;;7.45;3.50;;;;;;;29.55;46.67;100029.31;5003430;28;20442;-82
2022/07/25 10:31:21;;;;;;;7.25;3.47;;;;;;;29.54;53.41;100030.53;5008130;28;20426;-83
2022/07/25 10:33:56;;;;;;;6.28;3.60;;;;;;;29.52;51.87;100030.94;5010457;28;20417;-83
2022/07/25 10:36:43;;;;;;;7.03;3.75;;;;;;;29.39;63.58;100027.19;5013100;28;20415;-82
2022/07/25 10:39:18;;;;;;;5.40;3.63;;;;;;;29.31;56.59;100028.50;4999343;28;20431;-84
2022/07/25 10:41:53;;;;;;;6.40;3.80;;;;;;;29.19;58.74;100018.66;5007931;28;20426;-82
2022/07/25 10:44:30;;;;;;;7.25;3.80;;;;;;;29.26;66.80;100026.19;5004744;28;20506;-82
2022/07/25 10:47:08;;;;;;;5.95;3.65;;;;;;;29.60;47.69;100012.00;5003360;28;20422;-85
2022/07/25 10:49:43;;;;;;;5.88;3.58;;;;;;;29.54;51.79;99993.28;4999836;28;21158;-91
2022/07/25 10:52:18;;;;;;;7.93;4.88;;;;;;;29.68;62.93;100015.47;4999544;28;20439;-88
2022/07/25 10:54:54;;;;;;;5.70;3.53;;;;;;;29.43;63.77;100008.28;5004231;28;20435;-91
2022/07/25 10:57:28;;;;;;;6.20;3.80;;;;;;;29.31;56.94;100008.91;5016266;28;20441;-87
2022/07/25 11:00:05;;;;;;;6.35;3.83;;;;;;;29.18;61.50;100008.66;5016053;28;20418;-89
2022/07/25 11:02:35;;;;;;;6.30;3.80;;;;;;;29.14;66.23;100008.72;5004166;28;20436;-88
2022/07/25 11:05:09;;;;;;;7.93;4.83;;;;;;;29.09;64.34;100005.63;5004233;28;20419;-88
2022/07/25 11:07:51;;;;;;;8.85;4.55;;;;;;;29.33;64.27;100004.44;5004205;28;20431;-88
2022/07/25 11:10:28;;;;;;;5.80;3.63;;;;;;;29.40;68.79;99995.09;5008195;28;20434;-88
2022/07/25 11:13:01;;;;;;;7.80;4.00;;;;;;;29.43;56.75;99987.88;4977459;28;20906;-88
2022/07/25 11:15:29;;;;;;;7.30;3.80;;;;;;;29.40;57.27;99997.13;5003705;28;20911;-89
2022/07/25 11:18:04;;;;;;;5.80;3.55;;;;;;;29.44;61.99;99989.44;5009044;28;21611;-88
2022/07/25 11:20:37;;;;;;;6.22;3.75;;;;;;;29.23;57.91;99982.19;4998760;28;20454;-88
2022/07/25 11:23:10;;;;;;;6.05;3.83;;;;;;;29.15;60.81;99995.50;5005037;28;20825;-91
2022/07/25 11:25:43;;;;;;;6.18;3.40;;;;;;;29.35;54.30;99985.19;5003338;28;20522;-85
2022/07/25 11:28:16;;;;;;;6.95;3.80;;;;;;;29.31;57.32;99986.47;4997206;28;20431;-88
2022/07/25 11:30:50;;;;;;;6.97;4.05;;;;;;;29.34;59.44;99980.78;5000717;28;20426;-90
2022/07/25 11:33:24;;;;;;;5.68;3.67;;;;;;;29.26;71.55;99987.72;5005082;28;20440;-87
2022/07/25 11:35:58;;;;;;;5.75;3.60;;;;;;;29.20;65.49;99986.63;5006278;28;20506;-87
2022/07/25 11:38:32;;;;;;;6.07;3.60;;;;;;;29.08;64.43;99978.81;5005761;28;20433;-87
2022/07/25 11:41:05;;;;;;;6.32;3.75;;;;;;;29.09;66.35;99978.38;5008162;28;20519;-90
2022/07/25 11:43:48;;;;;;;7.00;3.65;;;;;;;29.09;69.04;99974.81;5009023;28;20443;-88
2022/07/25 11:46:21;;;;;;;6.40;3.77;;;;;;;28.97;69.73;99981.78;5003326;28;20945;-91
2022/07/25 11:49:06;;;;;;;6.50;3.78;;;;;;;29.12;62.11;99977.53;5001181;28;20952;-90